sensor_id;sensor_type;location;lat;lon;timestamp;pressure;altitude;pressure_sealevel;temperature;humidity
11692;BME280;33659;42.672;23.354;2023-12-04T00:02:25;67063.09;;;0.67;67.18
11692;BME280;33659;42.672;23.354;2023-12-04T00:04:52;67067.00;;;0.73;67.02
11692;BME280;33659;42.672;23.354;2023-12-04T00:07:18;67080.97;;;0.86;67.21
11692;BME280;33659;42.672;23.354;2023-12-04T00:09:45;67088.34;;;0.91;66.36
11692;BME280;33659;42.672;23.354;2023-12-04T00:12:12;67091.56;;;0.94;66.11
11692;BME280;33659;42.672;23.354;2023-12-04T00:14:38;67088.88;;;0.91;65.97
11692;BME280;33659;42.672;23.354;2023-12-04T00:17:06;67088.34;;;0.91;65.87
11692;BME280;33659;42.672;23.354;2023-12-04T00:19:33;67082.44;;;0.85;65.26
11692;BME280;33659;42.672;23.354;2023-12-04T00:22:00;67071.69;;;0.75;65.63
11692;BME280;33659;42.672;23.354;2023-12-04T00:24:26;67066.84;;;0.70;65.59
11692;BME280;33659;42.672;23.354;2023-12-04T00:26:53;67064.84;;;0.71;65.97
11692;BME280;33659;42.672;23.354;2023-12-04T00:29:19;67062.56;;;0.66;65.07
11692;BME280;33659;42.672;23.354;2023-12-04T00:31:46;67066.31;;;0.70;65.49
11692;BME280;33659;42.672;23.354;2023-12-04T00:34:14;67076.38;;;0.77;65.52
11692;BME280;33659;42.672;23.354;2023-12-04T00:36:41;67056.78;;;0.63;64.58
11692;BME280;33659;42.672;23.354;2023-12-04T00:39:08;67072.09;;;0.73;64.05
11692;BME280;33659;42.672;23.354;2023-12-04T00:41:34;67056.25;;;0.63;63.84
11692;BME280;33659;42.672;23.354;2023-12-04T00:44:01;67057.06;;;0.59;63.55
11692;BME280;33659;42.672;23.354;2023-12-04T00:46:28;67043.91;;;0.51;64.25
11692;BME280;33659;42.672;23.354;2023-12-04T00:48:54;67050.22;;;0.54;64.51
11692;BME280;33659;42.672;23.354;2023-12-04T00:51:22;67058.28;;;0.62;64.30
11692;BME280;33659;42.672;23.354;2023-12-04T00:53:53;67061.50;;;0.65;64.14
11692;BME280;33659;42.672;23.354;2023-12-04T00:56:20;67062.03;;;0.66;63.71
11692;BME280;33659;42.672;23.354;2023-12-04T00:58:46;67054.00;;;0.58;63.91
11692;BME280;33659;42.672;23.354;2023-12-04T01:01:14;67047.00;;;0.51;64.36
11692;BME280;33659;42.672;23.354;2023-12-04T01:03:41;67045.91;;;0.50;64.47
11692;BME280;33659;42.672;23.354;2023-12-04T01:06:20;67036.28;;;0.41;65.04
11692;BME280;33659;42.672;23.354;2023-12-04T01:08:49;67036.81;;;0.42;64.47
11692;BME280;33659;42.672;23.354;2023-12-04T01:11:17;67040.16;;;0.47;64.77
11692;BME280;33659;42.672;23.354;2023-12-04T01:13:44;67047.00;;;0.51;64.44
11692;BME280;33659;42.672;23.354;2023-12-04T01:16:11;67049.81;;;0.57;63.76
11692;BME280;33659;42.672;23.354;2023-12-04T01:18:38;67064.59;;;0.66;63.19
11692;BME280;33659;42.672;23.354;2023-12-04T01:21:05;67049.69;;;0.54;63.21
11692;BME280;33659;42.672;23.354;2023-12-04T01:23:32;67028.88;;;0.37;63.69
11692;BME280;33659;42.672;23.354;2023-12-04T01:26:00;67040.97;;;0.43;63.97
11692;BME280;33659;42.672;23.354;2023-12-04T01:28:26;67038.03;;;0.45;64.08
11692;BME280;33659;42.672;23.354;2023-12-04T01:30:53;67036.28;;;0.41;63.94
11692;BME280;33659;42.672;23.354;2023-12-04T01:33:20;67020.31;;;0.29;63.95
11692;BME280;33659;42.672;23.354;2023-12-04T01:35:47;67029.16;;;0.32;63.93
11692;BME280;33659;42.672;23.354;2023-12-04T01:38:13;67025.00;;;0.31;63.52
11692;BME280;33659;42.672;23.354;2023-12-04T01:40:40;67028.06;;;0.31;63.86
11692;BME280;33659;42.672;23.354;2023-12-04T01:43:08;67025.53;;;0.31;64.06
11692;BME280;33659;42.672;23.354;2023-12-04T01:45:35;67021.25;;;0.27;64.55
11692;BME280;33659;42.672;23.354;2023-12-04T01:48:02;67025.53;;;0.31;64.36
11692;BME280;33659;42.672;23.354;2023-12-04T01:50:31;67020.84;;;0.29;64.45
11692;BME280;33659;42.672;23.354;2023-12-04T01:52:58;67010.50;;;0.17;64.08
11692;BME280;33659;42.672;23.354;2023-12-04T01:55:24;67007.44;;;0.16;64.58
11692;BME280;33659;42.672;23.354;2023-12-04T01:57:52;67007.84;;;0.14;64.38
11692;BME280;33659;42.672;23.354;2023-12-04T02:00:22;66996.69;;;0.06;64.69
11692;BME280;33659;42.672;23.354;2023-12-04T02:02:50;67001.53;;;0.11;65.19
11692;BME280;33659;42.672;23.354;2023-12-04T02:05:17;66996.03;;;0.03;65.45
11692;BME280;33659;42.672;23.354;2023-12-04T02:07:44;66998.97;;;0.11;65.61
11692;BME280;33659;42.672;23.354;2023-12-04T02:10:11;66986.50;;;-0.04;65.83
11692;BME280;33659;42.672;23.354;2023-12-04T02:12:38;66986.50;;;-0.04;65.60
11692;BME280;33659;42.672;23.354;2023-12-04T02:15:05;66977.41;;;-0.12;65.74
11692;BME280;33659;42.672;23.354;2023-12-04T02:17:34;66976.72;;;-0.15;66.08
11692;BME280;33659;42.672;23.354;2023-12-04T02:20:02;66971.09;;;-0.16;66.16
11692;BME280;33659;42.672;23.354;2023-12-04T02:22:30;66979.53;;;-0.10;66.30
11692;BME280;33659;42.672;23.354;2023-12-04T02:24:58;66988.53;;;-0.04;65.84
11692;BME280;33659;42.672;23.354;2023-12-04T02:27:28;66977.41;;;-0.12;65.56
11692;BME280;33659;42.672;23.354;2023-12-04T02:29:58;66980.59;;;-0.09;66.43
11692;BME280;33659;42.672;23.354;2023-12-04T02:32:29;66981.69;;;-0.08;66.01
11692;BME280;33659;42.672;23.354;2023-12-04T02:34:57;66982.63;;;-0.10;66.12
11692;BME280;33659;42.672;23.354;2023-12-04T02:37:24;66987.56;;;-0.03;65.78
11692;BME280;33659;42.672;23.354;2023-12-04T02:39:52;66998.31;;;0.08;65.94
11692;BME280;33659;42.672;23.354;2023-12-04T02:42:22;66989.72;;;-0.01;65.60
11692;BME280;33659;42.672;23.354;2023-12-04T02:44:50;66999.78;;;0.07;65.10
11692;BME280;33659;42.672;23.354;2023-12-04T02:47:17;66995.50;;;0.03;64.97
11692;BME280;33659;42.672;23.354;2023-12-04T02:49:44;67003.66;;;0.13;64.65
11692;BME280;33659;42.672;23.354;2023-12-04T02:52:11;66999.91;;;0.09;65.10
11692;BME280;33659;42.672;23.354;2023-12-04T02:54:37;66982.22;;;-0.08;64.99
11692;BME280;33659;42.672;23.354;2023-12-04T02:57:04;66970.97;;;-0.18;64.95
11692;BME280;33659;42.672;23.354;2023-12-04T02:59:32;66973.09;;;-0.16;65.40
11692;BME280;33659;42.672;23.354;2023-12-04T03:01:59;66973.63;;;-0.16;65.29
11692;BME280;33659;42.672;23.354;2023-12-04T03:04:26;66976.31;;;-0.13;65.43
11692;BME280;33659;42.672;23.354;2023-12-04T03:06:53;66970.81;;;-0.21;65.34
11692;BME280;33659;42.672;23.354;2023-12-04T03:09:19;66972.03;;;-0.17;65.53
11692;BME280;33659;42.672;23.354;2023-12-04T03:11:46;66976.31;;;-0.13;65.20
11692;BME280;33659;42.672;23.354;2023-12-04T03:14:13;66962.50;;;-0.24;65.51
11692;BME280;33659;42.672;23.354;2023-12-04T03:16:41;66955.41;;;-0.33;65.57
11692;BME280;33659;42.672;23.354;2023-12-04T03:19:07;66965.44;;;-0.26;65.92
11692;BME280;33659;42.672;23.354;2023-12-04T03:21:34;66937.19;;;-0.50;65.89
11692;BME280;33659;42.672;23.354;2023-12-04T03:24:01;66960.22;;;-0.29;66.05
11692;BME280;33659;42.672;23.354;2023-12-04T03:26:27;66967.06;;;-0.24;65.87
11692;BME280;33659;42.672;23.354;2023-12-04T03:28:54;66978.31;;;-0.14;65.44
11692;BME280;33659;42.672;23.354;2023-12-04T03:31:21;66983.28;;;-0.07;64.91
11692;BME280;33659;42.672;23.354;2023-12-04T03:33:49;66977.94;;;-0.12;65.04
11692;BME280;33659;42.672;23.354;2023-12-04T03:36:16;66992.25;;;-0.01;64.63
11692;BME280;33659;42.672;23.354;2023-12-04T03:38:42;66995.09;;;0.05;64.52
11692;BME280;33659;42.672;23.354;2023-12-04T03:41:13;66992.25;;;-0.01;64.37
11692;BME280;33659;42.672;23.354;2023-12-04T03:43:40;66982.75;;;-0.07;64.22
11692;BME280;33659;42.672;23.354;2023-12-04T03:46:07;66984.22;;;-0.08;64.25
11692;BME280;33659;42.672;23.354;2023-12-04T03:48:33;66976.88;;;-0.13;64.19
11692;BME280;33659;42.672;23.354;2023-12-04T03:51:02;66987.44;;;-0.05;63.80
11692;BME280;33659;42.672;23.354;2023-12-04T03:53:29;66978.47;;;-0.11;64.07
11692;BME280;33659;42.672;23.354;2023-12-04T03:55:57;66967.19;;;-0.22;63.85
11692;BME280;33659;42.672;23.354;2023-12-04T03:58:24;66962.25;;;-0.29;64.25
11692;BME280;33659;42.672;23.354;2023-12-04T04:00:51;66962.91;;;-0.26;63.70
11692;BME280;33659;42.672;23.354;2023-12-04T04:03:18;66961.28;;;-0.28;63.96
11692;BME280;33659;42.672;23.354;2023-12-04T04:05:44;66950.72;;;-0.35;64.72
11692;BME280;33659;42.672;23.354;2023-12-04T04:08:12;66956.88;;;-0.34;64.09
11692;BME280;33659;42.672;23.354;2023-12-04T04:10:39;66955.25;;;-0.36;64.64
11692;BME280;33659;42.672;23.354;2023-12-04T04:13:06;66946.28;;;-0.42;64.21
11692;BME280;33659;42.672;23.354;2023-12-04T04:15:32;66939.84;;;-0.48;64.70
11692;BME280;33659;42.672;23.354;2023-12-04T04:17:59;66938.25;;;-0.49;65.17
11692;BME280;33659;42.672;23.354;2023-12-04T04:20:26;66927.50;;;-0.60;65.11
11692;BME280;33659;42.672;23.354;2023-12-04T04:22:53;66928.59;;;-0.59;65.17
11692;BME280;33659;42.672;23.354;2023-12-04T04:25:21;66925.38;;;-0.62;64.95
11692;BME280;33659;42.672;23.354;2023-12-04T04:27:49;66929.66;;;-0.58;65.36
11692;BME280;33659;42.672;23.354;2023-12-04T04:30:16;66939.72;;;-0.50;64.74
11692;BME280;33659;42.672;23.354;2023-12-04T04:32:42;66933.94;;;-0.53;64.57
11692;BME280;33659;42.672;23.354;2023-12-04T04:35:09;66931.13;;;-0.59;64.70
11692;BME280;33659;42.672;23.354;2023-12-04T04:37:36;66929.00;;;-0.61;64.73
11692;BME280;33659;42.672;23.354;2023-12-04T04:40:03;66931.81;;;-0.56;64.52
11692;BME280;33659;42.672;23.354;2023-12-04T04:42:32;66941.84;;;-0.48;64.90
11692;BME280;33659;42.672;23.354;2023-12-04T04:44:58;66945.75;;;-0.42;64.31
11692;BME280;33659;42.672;23.354;2023-12-04T04:47:25;66946.16;;;-0.44;63.90
11692;BME280;33659;42.672;23.354;2023-12-04T04:49:52;66946.16;;;-0.44;63.57
11692;BME280;33659;42.672;23.354;2023-12-04T04:52:18;66937.19;;;-0.50;63.58
11692;BME280;33659;42.672;23.354;2023-12-04T04:54:45;66939.31;;;-0.48;64.18
11692;BME280;33659;42.672;23.354;2023-12-04T04:57:12;66935.00;;;-0.52;64.07
11692;BME280;33659;42.672;23.354;2023-12-04T04:59:40;66931.28;;;-0.56;64.00
11692;BME280;33659;42.672;23.354;2023-12-04T05:02:06;66930.75;;;-0.57;63.91
11692;BME280;33659;42.672;23.354;2023-12-04T05:04:36;66941.31;;;-0.49;63.35
11692;BME280;33659;42.672;23.354;2023-12-04T05:07:03;66948.81;;;-0.42;63.48
11692;BME280;33659;42.672;23.354;2023-12-04T05:09:30;66944.69;;;-0.43;63.27
11692;BME280;33659;42.672;23.354;2023-12-04T05:11:56;66946.81;;;-0.41;63.04
11692;BME280;33659;42.672;23.354;2023-12-04T05:14:23;66944.16;;;-0.44;63.45
11692;BME280;33659;42.672;23.354;2023-12-04T05:16:51;66951.13;;;-0.37;63.20
11692;BME280;33659;42.672;23.354;2023-12-04T05:19:18;66952.59;;;-0.38;63.04
11692;BME280;33659;42.672;23.354;2023-12-04T05:21:44;66955.25;;;-0.36;62.90
11692;BME280;33659;42.672;23.354;2023-12-04T05:24:11;66946.81;;;-0.41;63.19
11692;BME280;33659;42.672;23.354;2023-12-04T05:26:38;66935.00;;;-0.52;63.50
11692;BME280;33659;42.672;23.354;2023-12-04T05:29:04;66922.69;;;-0.64;63.70
11692;BME280;33659;42.672;23.354;2023-12-04T05:31:31;66925.38;;;-0.62;63.83
11692;BME280;33659;42.672;23.354;2023-12-04T05:33:59;66944.00;;;-0.46;63.60
11692;BME280;33659;42.672;23.354;2023-12-04T05:36:27;66935.00;;;-0.52;63.08
11692;BME280;33659;42.672;23.354;2023-12-04T05:38:53;66940.25;;;-0.50;63.33
11692;BME280;33659;42.672;23.354;2023-12-04T05:41:20;66923.78;;;-0.63;63.21
11692;BME280;33659;42.672;23.354;2023-12-04T05:43:47;66922.56;;;-0.67;63.73
11692;BME280;33659;42.672;23.354;2023-12-04T05:46:13;66920.16;;;-0.64;63.40
11692;BME280;33659;42.672;23.354;2023-12-04T05:48:40;66907.69;;;-0.78;64.13
11692;BME280;33659;42.672;23.354;2023-12-04T05:51:10;66907.13;;;-0.79;64.22
11692;BME280;33659;42.672;23.354;2023-12-04T05:53:37;66901.25;;;-0.85;64.91
11692;BME280;33659;42.672;23.354;2023-12-04T05:56:05;66883.56;;;-1.01;64.80
11692;BME280;33659;42.672;23.354;2023-12-04T05:58:34;66923.09;;;-0.66;64.17
11692;BME280;33659;42.672;23.354;2023-12-04T06:01:01;66918.94;;;-0.68;64.09
11692;BME280;33659;42.672;23.354;2023-12-04T06:03:28;66911.44;;;-0.75;64.66
11692;BME280;33659;42.672;23.354;2023-12-04T06:05:54;66917.34;;;-0.69;64.03
11692;BME280;33659;42.672;23.354;2023-12-04T06:08:23;66909.69;;;-0.79;64.22
11692;BME280;33659;42.672;23.354;2023-12-04T06:10:49;66910.91;;;-0.75;63.75
11692;BME280;33659;42.672;23.354;2023-12-04T06:13:16;66904.59;;;-0.79;64.71
11692;BME280;33659;42.672;23.354;2023-12-04T06:15:43;66905.94;;;-0.83;64.22
11692;BME280;33659;42.672;23.354;2023-12-04T06:18:10;66892.13;;;-0.93;64.67
11692;BME280;33659;42.672;23.354;2023-12-04T06:20:37;66895.34;;;-0.90;65.23
11692;BME280;33659;42.672;23.354;2023-12-04T06:23:04;66904.47;;;-0.82;65.34
11692;BME280;33659;42.672;23.354;2023-12-04T06:25:33;66909.84;;;-0.76;65.03
11692;BME280;33659;42.672;23.354;2023-12-04T06:28:00;66909.31;;;-0.77;65.04
11692;BME280;33659;42.672;23.354;2023-12-04T06:30:27;66918.41;;;-0.68;64.43
11692;BME280;33659;42.672;23.354;2023-12-04T06:32:55;66922.16;;;-0.65;64.79
11692;BME280;33659;42.672;23.354;2023-12-04T06:35:22;66930.06;;;-0.60;64.47
11692;BME280;33659;42.672;23.354;2023-12-04T06:37:52;66930.59;;;-0.59;64.83
11692;BME280;33659;42.672;23.354;2023-12-04T06:40:20;66928.59;;;-0.59;64.81
11692;BME280;33659;42.672;23.354;2023-12-04T06:42:48;66938.09;;;-0.52;64.79
11692;BME280;33659;42.672;23.354;2023-12-04T06:45:15;66937.72;;;-0.50;64.61
11692;BME280;33659;42.672;23.354;2023-12-04T06:47:43;66944.69;;;-0.43;64.50
11692;BME280;33659;42.672;23.354;2023-12-04T06:50:12;66955.41;;;-0.33;64.14
11692;BME280;33659;42.672;23.354;2023-12-04T06:52:38;66954.72;;;-0.36;64.48
11692;BME280;33659;42.672;23.354;2023-12-04T06:55:06;66948.97;;;-0.39;64.54
11692;BME280;33659;42.672;23.354;2023-12-04T06:57:33;66946.41;;;-0.39;64.29
11692;BME280;33659;42.672;23.354;2023-12-04T07:00:01;66940.38;;;-0.47;64.13
11692;BME280;33659;42.672;23.354;2023-12-04T07:02:28;66935.81;;;-0.57;64.79
11692;BME280;33659;42.672;23.354;2023-12-04T07:04:55;66949.38;;;-0.41;64.58
11692;BME280;33659;42.672;23.354;2023-12-04T07:07:22;66949.50;;;-0.39;64.32
11692;BME280;33659;42.672;23.354;2023-12-04T07:09:49;66935.00;;;-0.52;64.62
11692;BME280;33659;42.672;23.354;2023-12-04T07:12:15;66946.81;;;-0.41;64.44
11692;BME280;33659;42.672;23.354;2023-12-04T07:14:42;66941.44;;;-0.46;64.52
11692;BME280;33659;42.672;23.354;2023-12-04T07:17:10;66952.03;;;-0.39;64.30
11692;BME280;33659;42.672;23.354;2023-12-04T07:19:37;66942.53;;;-0.45;64.37
11692;BME280;33659;42.672;23.354;2023-12-04T07:22:04;66955.81;;;-0.35;64.16
11692;BME280;33659;42.672;23.354;2023-12-04T07:24:31;66957.56;;;-0.31;63.98
11692;BME280;33659;42.672;23.354;2023-12-04T07:26:58;66960.22;;;-0.29;64.43
11692;BME280;33659;42.672;23.354;2023-12-04T07:29:25;66957.03;;;-0.32;64.26
11692;BME280;33659;42.672;23.354;2023-12-04T07:31:52;66977.41;;;-0.12;63.95
11692;BME280;33659;42.672;23.354;2023-12-04T07:34:20;66986.50;;;-0.04;63.37
11692;BME280;33659;42.672;23.354;2023-12-04T07:36:47;66985.44;;;-0.05;62.89
11692;BME280;33659;42.672;23.354;2023-12-04T07:39:13;66976.88;;;-0.13;62.23
11692;BME280;33659;42.672;23.354;2023-12-04T07:41:40;66979.41;;;-0.13;62.29
11692;BME280;33659;42.672;23.354;2023-12-04T07:44:07;66976.19;;;-0.16;62.60
11692;BME280;33659;42.672;23.354;2023-12-04T07:46:34;66976.19;;;-0.16;62.75
11692;BME280;33659;42.672;23.354;2023-12-04T07:49:01;66981.69;;;-0.08;62.32
11692;BME280;33659;42.672;23.354;2023-12-04T07:51:30;66995.09;;;0.05;61.48
11692;BME280;33659;42.672;23.354;2023-12-04T07:53:58;66997.25;;;0.07;61.36
11692;BME280;33659;42.672;23.354;2023-12-04T07:56:24;66995.09;;;0.05;60.77
11692;BME280;33659;42.672;23.354;2023-12-04T07:58:51;67009.44;;;0.16;61.13
11692;BME280;33659;42.672;23.354;2023-12-04T08:01:18;67009.56;;;0.18;60.25
11692;BME280;33659;42.672;23.354;2023-12-04T08:03:44;67010.09;;;0.19;60.34
11692;BME280;33659;42.672;23.354;2023-12-04T08:06:11;67018.69;;;0.27;60.09
11692;BME280;33659;42.672;23.354;2023-12-04T08:08:39;67018.56;;;0.24;60.13
11692;BME280;33659;42.672;23.354;2023-12-04T08:11:09;67028.75;;;0.34;59.16
11692;BME280;33659;42.672;23.354;2023-12-04T08:13:36;67036.28;;;0.41;59.22
11692;BME280;33659;42.672;23.354;2023-12-04T08:16:05;67035.31;;;0.43;59.42
11692;BME280;33659;42.672;23.354;2023-12-04T08:18:32;67028.34;;;0.36;59.67
11692;BME280;33659;42.672;23.354;2023-12-04T08:21:00;67055.72;;;0.62;58.51
11692;BME280;33659;42.672;23.354;2023-12-04T08:23:26;67073.81;;;0.77;58.12
11692;BME280;33659;42.672;23.354;2023-12-04T08:25:55;67093.31;;;0.98;56.96
11692;BME280;33659;42.672;23.354;2023-12-04T08:28:22;67107.25;;;1.11;56.13
11692;BME280;33659;42.672;23.354;2023-12-04T08:30:49;67102.97;;;1.07;55.22
11692;BME280;33659;42.672;23.354;2023-12-04T08:33:15;67111.00;;;1.15;55.24
11692;BME280;33659;42.672;23.354;2023-12-04T08:35:43;67127.13;;;1.30;54.14
11692;BME280;33659;42.672;23.354;2023-12-04T08:38:10;67138.41;;;1.41;54.12
11692;BME280;33659;42.672;23.354;2023-12-04T08:40:37;67157.75;;;1.59;54.14
11692;BME280;33659;42.672;23.354;2023-12-04T08:43:05;67179.75;;;1.80;51.87
11692;BME280;33659;42.672;23.354;2023-12-04T08:45:31;67187.84;;;1.87;51.69
11692;BME280;33659;42.672;23.354;2023-12-04T08:47:59;67186.09;;;1.83;52.04
11692;BME280;33659;42.672;23.354;2023-12-04T08:50:25;67217.66;;;2.11;52.54
11692;BME280;33659;42.672;23.354;2023-12-04T08:52:53;67239.94;;;2.37;51.65
11692;BME280;33659;42.672;23.354;2023-12-04T08:55:20;67249.91;;;2.41;51.07
11692;BME280;33659;42.672;23.354;2023-12-04T08:57:47;67276.91;;;2.69;50.65
11692;BME280;33659;42.672;23.354;2023-12-04T09:00:16;67276.91;;;2.69;50.07
11692;BME280;33659;42.672;23.354;2023-12-04T09:02:43;67285.53;;;2.78;49.71
11692;BME280;33659;42.672;23.354;2023-12-04T09:05:10;67272.47;;;2.63;49.19
11692;BME280;33659;42.672;23.354;2023-12-04T09:07:37;67264.00;;;2.57;49.84
11692;BME280;33659;42.672;23.354;2023-12-04T09:10:04;67266.16;;;2.59;50.01
11692;BME280;33659;42.672;23.354;2023-12-04T09:12:31;67265.22;;;2.61;49.43
11692;BME280;33659;42.672;23.354;2023-12-04T09:15:00;67260.78;;;2.54;49.69
11692;BME280;33659;42.672;23.354;2023-12-04T09:17:28;67267.25;;;2.60;50.09
11692;BME280;33659;42.672;23.354;2023-12-04T09:19:55;67281.75;;;2.74;49.47
11692;BME280;33659;42.672;23.354;2023-12-04T09:22:22;67286.59;;;2.79;49.85
11692;BME280;33659;42.672;23.354;2023-12-04T09:24:49;67309.59;;;2.98;49.63
11692;BME280;33659;42.672;23.354;2023-12-04T09:27:15;67333.38;;;3.23;49.03
11692;BME280;33659;42.672;23.354;2023-12-04T09:29:42;67357.06;;;3.45;47.91
11692;BME280;33659;42.672;23.354;2023-12-04T09:32:09;67375.88;;;3.63;47.80
11692;BME280;33659;42.672;23.354;2023-12-04T09:34:37;67392.56;;;3.79;46.67
11692;BME280;33659;42.672;23.354;2023-12-04T09:37:05;67398.91;;;3.83;47.15
11692;BME280;33659;42.672;23.354;2023-12-04T09:39:33;67410.75;;;3.94;47.09
11692;BME280;33659;42.672;23.354;2023-12-04T09:41:59;67414.22;;;4.02;46.65
11692;BME280;33659;42.672;23.354;2023-12-04T09:44:28;67420.97;;;4.03;46.65
11692;BME280;33659;42.672;23.354;2023-12-04T09:46:56;67445.44;;;4.31;46.60
11692;BME280;33659;42.672;23.354;2023-12-04T09:49:25;67461.88;;;4.42;46.21
11692;BME280;33659;42.672;23.354;2023-12-04T09:51:57;67476.41;;;4.56;46.73
11692;BME280;33659;42.672;23.354;2023-12-04T09:54:24;67491.63;;;4.73;45.40
11692;BME280;33659;42.672;23.354;2023-12-04T09:56:51;67520.59;;;4.98;44.95
11692;BME280;33659;42.672;23.354;2023-12-04T09:59:22;67552.94;;;5.28;44.51
11692;BME280;33659;42.672;23.354;2023-12-04T10:01:50;67588.06;;;5.64;44.50
11692;BME280;33659;42.672;23.354;2023-12-04T10:04:17;67626.22;;;5.97;44.53
11692;BME280;33659;42.672;23.354;2023-12-04T10:06:45;67662.91;;;6.32;43.56
11692;BME280;33659;42.672;23.354;2023-12-04T10:09:13;67695.78;;;6.63;42.66
11692;BME280;33659;42.672;23.354;2023-12-04T10:11:41;67741.13;;;7.06;42.09
11692;BME280;33659;42.672;23.354;2023-12-04T10:14:14;67782.69;;;7.45;41.09
11692;BME280;33659;42.672;23.354;2023-12-04T10:16:41;67811.81;;;7.73;39.95
11692;BME280;33659;42.672;23.354;2023-12-04T10:19:15;67817.78;;;7.78;39.50
11692;BME280;33659;42.672;23.354;2023-12-04T10:21:43;67841.41;;;7.98;39.82
11692;BME280;33659;42.672;23.354;2023-12-04T10:24:10;67860.97;;;8.19;39.47
11692;BME280;33659;42.672;23.354;2023-12-04T10:26:38;67859.34;;;8.18;38.99
11692;BME280;33659;42.672;23.354;2023-12-04T10:29:15;67911.25;;;8.66;38.30
11692;BME280;33659;42.672;23.354;2023-12-04T10:31:42;67949.38;;;8.98;37.77
11692;BME280;33659;42.672;23.354;2023-12-04T10:34:09;67973.91;;;9.26;37.48
11692;BME280;33659;42.672;23.354;2023-12-04T10:36:36;67991.22;;;9.42;36.88
11692;BME280;33659;42.672;23.354;2023-12-04T10:39:03;68012.19;;;9.59;36.71
11692;BME280;33659;42.672;23.354;2023-12-04T10:41:31;68032.31;;;9.81;36.28
11692;BME280;33659;42.672;23.354;2023-12-04T10:44:00;68037.72;;;9.86;35.67
11692;BME280;33659;42.672;23.354;2023-12-04T10:46:27;68038.81;;;9.87;36.00
11692;BME280;33659;42.672;23.354;2023-12-04T10:48:56;68065.19;;;10.09;35.96
11692;BME280;33659;42.672;23.354;2023-12-04T10:51:23;68099.84;;;10.42;35.67
11692;BME280;33659;42.672;23.354;2023-12-04T10:53:51;68116.09;;;10.57;35.75
11692;BME280;33659;42.672;23.354;2023-12-04T10:56:19;68138.38;;;10.80;35.13
11692;BME280;33659;42.672;23.354;2023-12-04T10:58:52;68154.63;;;10.96;35.06
11692;BME280;33659;42.672;23.354;2023-12-04T11:01:21;68195.53;;;11.29;34.56
11692;BME280;33659;42.672;23.354;2023-12-04T11:03:52;68217.28;;;11.52;33.97
11692;BME280;33659;42.672;23.354;2023-12-04T11:06:21;68240.16;;;11.76;33.48
11692;BME280;33659;42.672;23.354;2023-12-04T11:08:49;68255.88;;;11.91;33.39
11692;BME280;33659;42.672;23.354;2023-12-04T11:11:23;68260.53;;;11.90;33.39
11692;BME280;33659;42.672;23.354;2023-12-04T11:13:54;68254.78;;;11.90;35.62
11692;BME280;33659;42.672;23.354;2023-12-04T11:16:28;68299.00;;;12.27;35.10
11692;BME280;33659;42.672;23.354;2023-12-04T11:19:00;68343.56;;;12.71;34.99
11692;BME280;33659;42.672;23.354;2023-12-04T11:21:29;68379.75;;;13.02;33.51
11692;BME280;33659;42.672;23.354;2023-12-04T11:23:59;68432.03;;;13.57;32.44
11692;BME280;33659;42.672;23.354;2023-12-04T11:26:26;68485.09;;;14.04;32.28
11692;BME280;33659;42.672;23.354;2023-12-04T11:28:54;68520.78;;;14.35;32.35
11692;BME280;33659;42.672;23.354;2023-12-04T11:31:21;68596.81;;;15.06;30.18
11692;BME280;33659;42.672;23.354;2023-12-04T11:33:50;68657.22;;;15.65;30.28
11692;BME280;33659;42.672;23.354;2023-12-04T11:36:17;68720.66;;;16.22;29.95
11692;BME280;33659;42.672;23.354;2023-12-04T11:38:44;68807.66;;;17.04;27.79
11692;BME280;33659;42.672;23.354;2023-12-04T11:41:15;68917.56;;;18.07;27.32
11692;BME280;33659;42.672;23.354;2023-12-04T11:43:42;69034.06;;;19.16;25.78
11692;BME280;33659;42.672;23.354;2023-12-04T11:46:10;69090.91;;;20.33;24.34
11692;BME280;33659;42.672;23.354;2023-12-04T11:48:40;69274.31;;;21.38;22.65
11692;BME280;33659;42.672;23.354;2023-12-04T11:51:46;69310.50;;;22.38;21.01
11692;BME280;33659;42.672;23.354;2023-12-04T11:54:17;69430.72;;;23.58;20.20
11692;BME280;33659;42.672;23.354;2023-12-04T11:56:57;69548.63;;;24.68;19.40
11692;BME280;33659;42.672;23.354;2023-12-04T11:59:24;69602.38;;;25.08;18.84
11692;BME280;33659;42.672;23.354;2023-12-04T12:01:53;69572.31;;;24.80;19.04
11692;BME280;33659;42.672;23.354;2023-12-04T12:04:21;69579.50;;;24.90;19.02
11692;BME280;33659;42.672;23.354;2023-12-04T12:06:50;69629.03;;;25.48;18.31
11692;BME280;33659;42.672;23.354;2023-12-04T12:09:19;69683.16;;;25.81;18.32
11692;BME280;33659;42.672;23.354;2023-12-04T12:11:45;69713.34;;;26.14;18.30
11692;BME280;33659;42.672;23.354;2023-12-04T12:14:12;69761.53;;;26.62;18.19
11692;BME280;33659;42.672;23.354;2023-12-04T12:16:39;69792.06;;;26.88;18.23
11692;BME280;33659;42.672;23.354;2023-12-04T12:19:07;69779.38;;;26.91;16.95
11692;BME280;33659;42.672;23.354;2023-12-04T12:21:33;69872.59;;;26.93;17.41
11692;BME280;33659;42.672;23.354;2023-12-04T12:24:01;69763.00;;;26.58;17.70
11692;BME280;33659;42.672;23.354;2023-12-04T12:26:28;69743.34;;;26.40;17.84
11692;BME280;33659;42.672;23.354;2023-12-04T12:28:56;69763.44;;;26.54;17.21
11692;BME280;33659;42.672;23.354;2023-12-04T12:31:23;69731.34;;;25.59;17.33
11692;BME280;33659;42.672;23.354;2023-12-04T12:33:50;69571.22;;;24.79;17.46
11692;BME280;33659;42.672;23.354;2023-12-04T12:36:17;69353.56;;;22.79;18.71
11692;BME280;33659;42.672;23.354;2023-12-04T12:38:45;69349.53;;;22.06;19.91
11692;BME280;33659;42.672;23.354;2023-12-04T12:41:16;69227.44;;;20.94;20.42
11692;BME280;33659;42.672;23.354;2023-12-04T12:43:44;69099.78;;;19.72;21.14
11692;BME280;33659;42.672;23.354;2023-12-04T12:46:11;69076.53;;;19.56;22.26
11692;BME280;33659;42.672;23.354;2023-12-04T12:48:42;69112.50;;;19.89;22.35
11692;BME280;33659;42.672;23.354;2023-12-04T12:51:09;69146.19;;;20.18;21.46
11692;BME280;33659;42.672;23.354;2023-12-04T12:53:36;69199.09;;;20.68;21.70
11692;BME280;33659;42.672;23.354;2023-12-04T12:56:04;69158.44;;;20.96;21.20
11692;BME280;33659;42.672;23.354;2023-12-04T12:58:33;69207.94;;;21.40;20.88